sensor_id;sensor_type;location;lat;lon;timestamp;P1;durP1;ratioP1;P2;durP2;ratioP2
5813;SDS011;2933;52.302;8.134;2023-10-31T00:03:03;8.90;;;6.03;;
5813;SDS011;2933;52.302;8.134;2023-10-31T00:08:06;7.90;;;6.07;;
5813;SDS011;2933;52.302;8.134;2023-10-31T00:13:07;9.00;;;7.37;;
5813;SDS011;2933;52.302;8.134;2023-10-31T00:18:12;7.30;;;6.30;;
5813;SDS011;2933;52.302;8.134;2023-10-31T00:23:14;9.70;;;7.40;;
5813;SDS011;2933;52.302;8.134;2023-10-31T00:28:17;9.53;;;7.80;;
5813;SDS011;2933;52.302;8.134;2023-10-31T00:33:21;11.43;;;8.17;;
5813;SDS011;2933;52.302;8.134;2023-10-31T00:38:26;13.33;;;9.13;;
5813;SDS011;2933;52.302;8.134;2023-10-31T00:43:35;17.37;;;9.50;;
5813;SDS011;2933;52.302;8.134;2023-10-31T00:48:39;13.60;;;9.17;;
5813;SDS011;2933;52.302;8.134;2023-10-31T00:53:46;15.67;;;9.57;;
5813;SDS011;2933;52.302;8.134;2023-10-31T00:58:59;16.90;;;8.70;;
5813;SDS011;2933;52.302;8.134;2023-10-31T01:04:13;12.07;;;8.43;;
5813;SDS011;2933;52.302;8.134;2023-10-31T01:09:16;13.03;;;8.03;;
5813;SDS011;2933;52.302;8.134;2023-10-31T01:14:23;13.60;;;8.27;;
5813;SDS011;2933;52.302;8.134;2023-10-31T01:19:28;16.43;;;8.77;;
5813;SDS011;2933;52.302;8.134;2023-10-31T01:24:31;16.60;;;9.17;;
5813;SDS011;2933;52.302;8.134;2023-10-31T01:29:33;16.53;;;10.33;;
5813;SDS011;2933;52.302;8.134;2023-10-31T01:34:39;13.57;;;9.93;;
5813;SDS011;2933;52.302;8.134;2023-10-31T01:39:42;13.67;;;8.50;;
5813;SDS011;2933;52.302;8.134;2023-10-31T01:44:59;14.23;;;9.60;;
5813;SDS011;2933;52.302;8.134;2023-10-31T01:50:05;12.27;;;8.00;;
5813;SDS011;2933;52.302;8.134;2023-10-31T01:55:11;9.40;;;8.10;;
5813;SDS011;2933;52.302;8.134;2023-10-31T02:00:14;9.50;;;7.33;;
5813;SDS011;2933;52.302;8.134;2023-10-31T02:05:23;8.10;;;6.60;;
5813;SDS011;2933;52.302;8.134;2023-10-31T02:10:26;9.83;;;7.80;;
5813;SDS011;2933;52.302;8.134;2023-10-31T02:15:28;6.17;;;5.67;;
5813;SDS011;2933;52.302;8.134;2023-10-31T02:20:31;5.50;;;5.00;;
5813;SDS011;2933;52.302;8.134;2023-10-31T02:25:37;6.33;;;5.10;;
5813;SDS011;2933;52.302;8.134;2023-10-31T02:30:38;6.73;;;6.10;;
5813;SDS011;2933;52.302;8.134;2023-10-31T02:35:42;8.30;;;7.00;;
5813;SDS011;2933;52.302;8.134;2023-10-31T02:40:50;8.83;;;6.93;;
5813;SDS011;2933;52.302;8.134;2023-10-31T02:45:51;6.13;;;5.37;;
5813;SDS011;2933;52.302;8.134;2023-10-31T02:50:58;4.27;;;3.97;;
5813;SDS011;2933;52.302;8.134;2023-10-31T02:56:02;4.17;;;3.80;;
5813;SDS011;2933;52.302;8.134;2023-10-31T03:01:07;3.53;;;3.23;;
5813;SDS011;2933;52.302;8.134;2023-10-31T03:06:10;5.20;;;3.67;;
5813;SDS011;2933;52.302;8.134;2023-10-31T03:11:21;2.60;;;2.43;;
5813;SDS011;2933;52.302;8.134;2023-10-31T03:16:23;2.93;;;2.73;;
5813;SDS011;2933;52.302;8.134;2023-10-31T03:21:28;2.43;;;2.33;;
5813;SDS011;2933;52.302;8.134;2023-10-31T03:26:31;0.80;;;0.80;;
5813;SDS011;2933;52.302;8.134;2023-10-31T03:31:41;1.03;;;0.70;;
5813;SDS011;2933;52.302;8.134;2023-10-31T03:36:43;0.50;;;0.50;;
5813;SDS011;2933;52.302;8.134;2023-10-31T03:41:47;2.40;;;0.70;;
5813;SDS011;2933;52.302;8.134;2023-10-31T03:46:55;2.87;;;0.70;;
5813;SDS011;2933;52.302;8.134;2023-10-31T03:51:57;1.03;;;0.57;;
5813;SDS011;2933;52.302;8.134;2023-10-31T03:57:00;0.60;;;0.60;;
5813;SDS011;2933;52.302;8.134;2023-10-31T04:02:02;1.70;;;0.77;;
5813;SDS011;2933;52.302;8.134;2023-10-31T04:07:04;0.97;;;0.63;;
5813;SDS011;2933;52.302;8.134;2023-10-31T04:12:09;0.50;;;0.50;;
5813;SDS011;2933;52.302;8.134;2023-10-31T04:17:10;0.50;;;0.50;;
5813;SDS011;2933;52.302;8.134;2023-10-31T04:22:12;2.53;;;0.50;;
5813;SDS011;2933;52.302;8.134;2023-10-31T04:27:16;0.50;;;0.50;;
5813;SDS011;2933;52.302;8.134;2023-10-31T04:32:19;0.60;;;0.60;;
5813;SDS011;2933;52.302;8.134;2023-10-31T04:37:20;0.60;;;0.60;;
5813;SDS011;2933;52.302;8.134;2023-10-31T04:42:24;4.47;;;1.00;;
5813;SDS011;2933;52.302;8.134;2023-10-31T04:47:26;0.90;;;0.80;;
5813;SDS011;2933;52.302;8.134;2023-10-31T04:52:28;7.63;;;1.87;;
5813;SDS011;2933;52.302;8.134;2023-10-31T04:57:33;2.37;;;2.17;;
5813;SDS011;2933;52.302;8.134;2023-10-31T05:02:34;2.70;;;2.27;;
5813;SDS011;2933;52.302;8.134;2023-10-31T05:07:40;3.77;;;3.47;;
5813;SDS011;2933;52.302;8.134;2023-10-31T05:12:46;5.77;;;3.40;;
5813;SDS011;2933;52.302;8.134;2023-10-31T05:17:48;6.40;;;3.60;;
5813;SDS011;2933;52.302;8.134;2023-10-31T05:22:50;6.10;;;4.07;;
5813;SDS011;2933;52.302;8.134;2023-10-31T05:27:54;4.63;;;4.00;;
5813;SDS011;2933;52.302;8.134;2023-10-31T05:32:58;10.37;;;4.57;;
5813;SDS011;2933;52.302;8.134;2023-10-31T05:38:01;10.50;;;4.60;;
5813;SDS011;2933;52.302;8.134;2023-10-31T05:48:28;7.37;;;5.20;;
5813;SDS011;2933;52.302;8.134;2023-10-31T05:53:37;7.67;;;4.87;;
5813;SDS011;2933;52.302;8.134;2023-10-31T05:58:56;5.27;;;4.47;;
5813;SDS011;2933;52.302;8.134;2023-10-31T06:03:58;6.30;;;4.20;;
5813;SDS011;2933;52.302;8.134;2023-10-31T06:09:02;5.20;;;4.47;;
5813;SDS011;2933;52.302;8.134;2023-10-31T06:14:09;4.73;;;3.73;;
5813;SDS011;2933;52.302;8.134;2023-10-31T06:19:21;4.10;;;3.43;;
5813;SDS011;2933;52.302;8.134;2023-10-31T06:24:31;3.63;;;2.60;;
5813;SDS011;2933;52.302;8.134;2023-10-31T06:29:46;5.30;;;2.90;;
5813;SDS011;2933;52.302;8.134;2023-10-31T06:34:56;3.10;;;2.90;;
5813;SDS011;2933;52.302;8.134;2023-10-31T06:40:26;2.37;;;2.27;;
5813;SDS011;2933;52.302;8.134;2023-10-31T06:45:48;5.10;;;3.10;;
5813;SDS011;2933;52.302;8.134;2023-10-31T06:50:54;2.80;;;2.57;;
5813;SDS011;2933;52.302;8.134;2023-10-31T06:56:41;5.40;;;3.00;;
5813;SDS011;2933;52.302;8.134;2023-10-31T07:02:04;3.00;;;2.80;;
5813;SDS011;2933;52.302;8.134;2023-10-31T07:07:23;2.70;;;2.50;;
5813;SDS011;2933;52.302;8.134;2023-10-31T07:12:33;2.93;;;2.73;;
5813;SDS011;2933;52.302;8.134;2023-10-31T07:33:10;2.27;;;2.17;;
5813;SDS011;2933;52.302;8.134;2023-10-31T07:38:16;2.50;;;2.20;;
5813;SDS011;2933;52.302;8.134;2023-10-31T07:43:38;2.23;;;2.13;;
5813;SDS011;2933;52.302;8.134;2023-10-31T07:54:46;4.50;;;1.50;;
5813;SDS011;2933;52.302;8.134;2023-10-31T07:59:48;2.27;;;2.07;;
5813;SDS011;2933;52.302;8.134;2023-10-31T08:04:52;1.90;;;1.80;;
5813;SDS011;2933;52.302;8.134;2023-10-31T08:09:55;1.80;;;1.70;;
5813;SDS011;2933;52.302;8.134;2023-10-31T08:14:58;2.40;;;1.63;;
5813;SDS011;2933;52.302;8.134;2023-10-31T08:20:00;1.40;;;1.40;;
5813;SDS011;2933;52.302;8.134;2023-10-31T08:25:06;1.40;;;1.40;;
5813;SDS011;2933;52.302;8.134;2023-10-31T08:30:16;1.70;;;1.50;;
5813;SDS011;2933;52.302;8.134;2023-10-31T08:35:20;2.20;;;2.10;;
5813;SDS011;2933;52.302;8.134;2023-10-31T08:40:40;2.90;;;1.90;;
5813;SDS011;2933;52.302;8.134;2023-10-31T08:45:55;1.90;;;1.80;;
5813;SDS011;2933;52.302;8.134;2023-10-31T08:50:57;1.87;;;1.73;;
5813;SDS011;2933;52.302;8.134;2023-10-31T08:56:00;1.40;;;1.40;;
5813;SDS011;2933;52.302;8.134;2023-10-31T09:01:04;2.70;;;1.30;;
5813;SDS011;2933;52.302;8.134;2023-10-31T09:06:07;1.43;;;1.33;;
5813;SDS011;2933;52.302;8.134;2023-10-31T09:11:14;3.07;;;1.20;;
5813;SDS011;2933;52.302;8.134;2023-10-31T09:16:16;0.80;;;0.80;;
5813;SDS011;2933;52.302;8.134;2023-10-31T09:21:18;1.43;;;1.40;;
5813;SDS011;2933;52.302;8.134;2023-10-31T09:26:22;2.83;;;1.20;;
5813;SDS011;2933;52.302;8.134;2023-10-31T09:31:24;1.73;;;1.30;;
5813;SDS011;2933;52.302;8.134;2023-10-31T09:36:25;2.23;;;2.03;;
5813;SDS011;2933;52.302;8.134;2023-10-31T09:41:29;1.67;;;1.40;;
5813;SDS011;2933;52.302;8.134;2023-10-31T09:46:32;2.00;;;1.50;;
5813;SDS011;2933;52.302;8.134;2023-10-31T09:51:41;2.50;;;1.70;;
5813;SDS011;2933;52.302;8.134;2023-10-31T09:56:45;2.37;;;1.90;;
5813;SDS011;2933;52.302;8.134;2023-10-31T10:01:51;1.87;;;1.77;;
5813;SDS011;2933;52.302;8.134;2023-10-31T10:06:58;2.20;;;2.10;;
5813;SDS011;2933;52.302;8.134;2023-10-31T10:12:02;2.10;;;2.00;;
5813;SDS011;2933;52.302;8.134;2023-10-31T10:17:06;2.13;;;2.03;;
5813;SDS011;2933;52.302;8.134;2023-10-31T10:22:15;3.00;;;2.00;;
5813;SDS011;2933;52.302;8.134;2023-10-31T10:27:23;4.47;;;2.10;;
5813;SDS011;2933;52.302;8.134;2023-10-31T10:32:25;1.97;;;1.87;;
5813;SDS011;2933;52.302;8.134;2023-10-31T10:37:28;2.90;;;1.70;;
5813;SDS011;2933;52.302;8.134;2023-10-31T10:42:35;1.83;;;1.73;;
5813;SDS011;2933;52.302;8.134;2023-10-31T10:47:45;1.73;;;1.63;;
5813;SDS011;2933;52.302;8.134;2023-10-31T10:52:49;1.37;;;1.27;;
5813;SDS011;2933;52.302;8.134;2023-10-31T10:58:00;1.20;;;1.20;;
5813;SDS011;2933;52.302;8.134;2023-10-31T11:03:04;2.63;;;1.20;;
5813;SDS011;2933;52.302;8.134;2023-10-31T11:08:08;2.73;;;1.60;;
5813;SDS011;2933;52.302;8.134;2023-10-31T11:13:11;1.50;;;1.40;;
5813;SDS011;2933;52.302;8.134;2023-10-31T11:18:14;1.70;;;1.60;;
5813;SDS011;2933;52.302;8.134;2023-10-31T11:23:15;2.30;;;1.40;;
5813;SDS011;2933;52.302;8.134;2023-10-31T11:28:18;1.60;;;1.50;;
5813;SDS011;2933;52.302;8.134;2023-10-31T11:33:20;2.00;;;1.30;;
5813;SDS011;2933;52.302;8.134;2023-10-31T11:38:28;2.03;;;1.50;;
5813;SDS011;2933;52.302;8.134;2023-10-31T11:43:53;1.80;;;1.30;;
5813;SDS011;2933;52.302;8.134;2023-10-31T11:48:57;1.33;;;1.10;;
5813;SDS011;2933;52.302;8.134;2023-10-31T11:54:00;1.20;;;1.13;;
5813;SDS011;2933;52.302;8.134;2023-10-31T11:59:04;2.53;;;1.23;;
5813;SDS011;2933;52.302;8.134;2023-10-31T12:04:07;1.00;;;0.97;;
5813;SDS011;2933;52.302;8.134;2023-10-31T12:09:08;0.80;;;0.80;;
5813;SDS011;2933;52.302;8.134;2023-10-31T12:14:11;1.13;;;1.13;;
5813;SDS011;2933;52.302;8.134;2023-10-31T12:19:20;1.07;;;0.70;;
5813;SDS011;2933;52.302;8.134;2023-10-31T12:24:22;0.80;;;0.80;;
5813;SDS011;2933;52.302;8.134;2023-10-31T12:29:25;1.70;;;1.17;;
5813;SDS011;2933;52.302;8.134;2023-10-31T12:34:26;1.23;;;1.07;;
5813;SDS011;2933;52.302;8.134;2023-10-31T12:39:28;1.83;;;1.03;;
5813;SDS011;2933;52.302;8.134;2023-10-31T12:44:35;0.80;;;0.80;;
5813;SDS011;2933;52.302;8.134;2023-10-31T12:49:37;3.87;;;1.10;;
5813;SDS011;2933;52.302;8.134;2023-10-31T12:54:38;1.83;;;1.07;;
5813;SDS011;2933;52.302;8.134;2023-10-31T12:59:41;1.23;;;0.90;;
5813;SDS011;2933;52.302;8.134;2023-10-31T13:04:43;3.13;;;0.90;;
5813;SDS011;2933;52.302;8.134;2023-10-31T13:09:45;0.83;;;0.83;;
5813;SDS011;2933;52.302;8.134;2023-10-31T13:14:53;2.50;;;1.30;;
5813;SDS011;2933;52.302;8.134;2023-10-31T13:19:58;1.30;;;0.73;;
5813;SDS011;2933;52.302;8.134;2023-10-31T13:25:00;6.57;;;1.20;;
5813;SDS011;2933;52.302;8.134;2023-10-31T13:30:07;3.23;;;1.60;;
5813;SDS011;2933;52.302;8.134;2023-10-31T13:35:09;0.90;;;0.90;;
5813;SDS011;2933;52.302;8.134;2023-10-31T13:40:11;3.93;;;1.23;;
5813;SDS011;2933;52.302;8.134;2023-10-31T13:45:15;1.87;;;0.80;;
5813;SDS011;2933;52.302;8.134;2023-10-31T13:50:19;1.30;;;0.63;;
5813;SDS011;2933;52.302;8.134;2023-10-31T13:55:21;0.87;;;0.53;;
5813;SDS011;2933;52.302;8.134;2023-10-31T14:00:25;1.00;;;0.70;;
5813;SDS011;2933;52.302;8.134;2023-10-31T14:05:26;1.40;;;0.90;;
5813;SDS011;2933;52.302;8.134;2023-10-31T14:10:28;0.53;;;0.53;;
5813;SDS011;2933;52.302;8.134;2023-10-31T14:15:32;0.60;;;0.60;;
5813;SDS011;2933;52.302;8.134;2023-10-31T14:20:34;0.70;;;0.60;;
5813;SDS011;2933;52.302;8.134;2023-10-31T14:25:36;1.73;;;0.90;;
5813;SDS011;2933;52.302;8.134;2023-10-31T14:30:40;0.70;;;0.70;;
5813;SDS011;2933;52.302;8.134;2023-10-31T14:35:41;4.50;;;0.80;;
5813;SDS011;2933;52.302;8.134;2023-10-31T14:40:43;0.50;;;0.50;;
5813;SDS011;2933;52.302;8.134;2023-10-31T14:45:46;0.60;;;0.60;;
5813;SDS011;2933;52.302;8.134;2023-10-31T14:50:48;0.60;;;0.60;;
5813;SDS011;2933;52.302;8.134;2023-10-31T14:55:50;0.80;;;0.80;;
5813;SDS011;2933;52.302;8.134;2023-10-31T15:00:53;8.30;;;0.97;;
5813;SDS011;2933;52.302;8.134;2023-10-31T15:05:55;2.00;;;0.93;;
5813;SDS011;2933;52.302;8.134;2023-10-31T15:10:59;4.90;;;3.93;;
5813;SDS011;2933;52.302;8.134;2023-10-31T15:16:02;6.73;;;5.67;;
5813;SDS011;2933;52.302;8.134;2023-10-31T15:21:04;12.67;;;5.30;;
5813;SDS011;2933;52.302;8.134;2023-10-31T15:26:06;11.57;;;6.30;;
5813;SDS011;2933;52.302;8.134;2023-10-31T15:31:14;8.63;;;6.40;;
5813;SDS011;2933;52.302;8.134;2023-10-31T15:36:15;9.70;;;6.70;;
5813;SDS011;2933;52.302;8.134;2023-10-31T15:41:17;11.03;;;6.50;;
5813;SDS011;2933;52.302;8.134;2023-10-31T15:46:22;14.83;;;6.70;;
5813;SDS011;2933;52.302;8.134;2023-10-31T15:51:24;9.57;;;7.00;;
5813;SDS011;2933;52.302;8.134;2023-10-31T15:56:26;12.80;;;6.53;;
5813;SDS011;2933;52.302;8.134;2023-10-31T16:01:39;12.33;;;6.40;;
5813;SDS011;2933;52.302;8.134;2023-10-31T16:06:46;9.33;;;6.10;;
5813;SDS011;2933;52.302;8.134;2023-10-31T16:11:55;9.83;;;6.40;;
5813;SDS011;2933;52.302;8.134;2023-10-31T16:17:00;12.20;;;5.93;;
5813;SDS011;2933;52.302;8.134;2023-10-31T16:22:05;10.10;;;6.23;;
5813;SDS011;2933;52.302;8.134;2023-10-31T16:27:14;5.43;;;4.23;;
5813;SDS011;2933;52.302;8.134;2023-10-31T16:32:30;5.43;;;4.30;;
5813;SDS011;2933;52.302;8.134;2023-10-31T16:37:31;4.27;;;2.50;;
5813;SDS011;2933;52.302;8.134;2023-10-31T16:42:34;3.27;;;2.00;;
5813;SDS011;2933;52.302;8.134;2023-10-31T16:47:40;1.83;;;1.70;;
5813;SDS011;2933;52.302;8.134;2023-10-31T16:52:45;2.10;;;1.90;;
5813;SDS011;2933;52.302;8.134;2023-10-31T16:57:48;1.67;;;1.50;;
5813;SDS011;2933;52.302;8.134;2023-10-31T17:02:51;1.40;;;1.40;;
5813;SDS011;2933;52.302;8.134;2023-10-31T17:07:54;1.30;;;1.30;;
5813;SDS011;2933;52.302;8.134;2023-10-31T17:12:56;2.43;;;1.73;;
5813;SDS011;2933;52.302;8.134;2023-10-31T17:17:59;2.87;;;1.83;;
5813;SDS011;2933;52.302;8.134;2023-10-31T17:23:01;1.63;;;1.53;;
5813;SDS011;2933;52.302;8.134;2023-10-31T17:28:03;2.00;;;1.90;;
5813;SDS011;2933;52.302;8.134;2023-10-31T17:33:07;7.20;;;1.77;;
5813;SDS011;2933;52.302;8.134;2023-10-31T17:38:09;1.97;;;1.87;;
5813;SDS011;2933;52.302;8.134;2023-10-31T17:43:11;1.50;;;1.40;;
5813;SDS011;2933;52.302;8.134;2023-10-31T17:48:14;1.97;;;1.70;;
5813;SDS011;2933;52.302;8.134;2023-10-31T17:53:27;4.07;;;2.13;;
5813;SDS011;2933;52.302;8.134;2023-10-31T17:58:32;2.30;;;2.10;;
5813;SDS011;2933;52.302;8.134;2023-10-31T18:03:41;2.23;;;1.97;;
5813;SDS011;2933;52.302;8.134;2023-10-31T18:08:45;2.20;;;1.93;;
5813;SDS011;2933;52.302;8.134;2023-10-31T18:13:48;1.67;;;1.57;;
5813;SDS011;2933;52.302;8.134;2023-10-31T18:18:51;2.23;;;2.07;;
5813;SDS011;2933;52.302;8.134;2023-10-31T18:23:56;1.60;;;1.40;;
5813;SDS011;2933;52.302;8.134;2023-10-31T18:28:58;1.97;;;1.80;;
5813;SDS011;2933;52.302;8.134;2023-10-31T18:34:01;2.50;;;1.60;;
5813;SDS011;2933;52.302;8.134;2023-10-31T18:39:05;2.97;;;1.70;;
5813;SDS011;2933;52.302;8.134;2023-10-31T18:44:09;3.83;;;2.10;;
5813;SDS011;2933;52.302;8.134;2023-10-31T18:49:14;2.07;;;1.97;;
5813;SDS011;2933;52.302;8.134;2023-10-31T18:54:16;2.80;;;2.27;;
5813;SDS011;2933;52.302;8.134;2023-10-31T18:59:33;5.10;;;2.33;;
5813;SDS011;2933;52.302;8.134;2023-10-31T19:04:50;3.10;;;2.20;;
5813;SDS011;2933;52.302;8.134;2023-10-31T19:09:56;4.00;;;2.77;;
5813;SDS011;2933;52.302;8.134;2023-10-31T19:15:00;4.10;;;3.20;;
5813;SDS011;2933;52.302;8.134;2023-10-31T19:20:22;4.00;;;3.60;;
5813;SDS011;2933;52.302;8.134;2023-10-31T19:25:24;5.20;;;3.87;;
5813;SDS011;2933;52.302;8.134;2023-10-31T19:30:32;4.03;;;3.73;;
5813;SDS011;2933;52.302;8.134;2023-10-31T19:35:35;6.73;;;3.20;;
5813;SDS011;2933;52.302;8.134;2023-10-31T19:40:37;3.90;;;3.17;;
5813;SDS011;2933;52.302;8.134;2023-10-31T19:45:40;3.13;;;2.57;;
5813;SDS011;2933;52.302;8.134;2023-10-31T19:50:50;3.27;;;3.00;;
5813;SDS011;2933;52.302;8.134;2023-10-31T19:56:02;4.03;;;3.60;;
5813;SDS011;2933;52.302;8.134;2023-10-31T20:01:06;7.20;;;3.50;;
5813;SDS011;2933;52.302;8.134;2023-10-31T20:06:11;7.57;;;4.00;;
5813;SDS011;2933;52.302;8.134;2023-10-31T20:11:16;7.53;;;4.07;;
5813;SDS011;2933;52.302;8.134;2023-10-31T20:16:20;6.50;;;4.20;;
5813;SDS011;2933;52.302;8.134;2023-10-31T20:21:28;4.60;;;3.83;;
5813;SDS011;2933;52.302;8.134;2023-10-31T20:26:45;6.13;;;4.20;;
5813;SDS011;2933;52.302;8.134;2023-10-31T20:31:58;11.43;;;4.60;;
5813;SDS011;2933;52.302;8.134;2023-10-31T20:37:09;9.90;;;4.53;;
5813;SDS011;2933;52.302;8.134;2023-10-31T20:42:23;4.93;;;4.47;;
5813;SDS011;2933;52.302;8.134;2023-10-31T20:47:39;12.03;;;5.83;;
5813;SDS011;2933;52.302;8.134;2023-10-31T20:52:55;7.67;;;5.47;;
5813;SDS011;2933;52.302;8.134;2023-10-31T20:58:04;15.23;;;5.10;;
5813;SDS011;2933;52.302;8.134;2023-10-31T21:03:08;11.03;;;6.73;;
5813;SDS011;2933;52.302;8.134;2023-10-31T21:08:14;16.33;;;6.03;;
5813;SDS011;2933;52.302;8.134;2023-10-31T21:13:16;11.23;;;6.50;;
5813;SDS011;2933;52.302;8.134;2023-10-31T21:18:18;7.03;;;5.97;;
5813;SDS011;2933;52.302;8.134;2023-10-31T21:23:22;16.77;;;9.30;;
5813;SDS011;2933;52.302;8.134;2023-10-31T21:28:24;14.60;;;6.70;;
5813;SDS011;2933;52.302;8.134;2023-10-31T21:33:49;13.53;;;8.43;;
5813;SDS011;2933;52.302;8.134;2023-10-31T21:39:20;13.87;;;8.40;;
5813;SDS011;2933;52.302;8.134;2023-10-31T21:44:36;12.03;;;8.00;;
5813;SDS011;2933;52.302;8.134;2023-10-31T21:49:47;13.73;;;8.00;;
5813;SDS011;2933;52.302;8.134;2023-10-31T21:54:56;12.83;;;8.00;;
5813;SDS011;2933;52.302;8.134;2023-10-31T21:59:59;17.23;;;9.30;;
5813;SDS011;2933;52.302;8.134;2023-10-31T22:05:04;13.50;;;8.93;;
5813;SDS011;2933;52.302;8.134;2023-10-31T22:10:12;17.83;;;10.00;;
5813;SDS011;2933;52.302;8.134;2023-10-31T22:15:17;13.87;;;9.07;;
5813;SDS011;2933;52.302;8.134;2023-10-31T22:20:22;15.13;;;9.37;;
5813;SDS011;2933;52.302;8.134;2023-10-31T22:25:28;16.43;;;9.63;;
5813;SDS011;2933;52.302;8.134;2023-10-31T22:36:43;17.37;;;9.80;;
5813;SDS011;2933;52.302;8.134;2023-10-31T22:53:47;18.23;;;9.63;;
5813;SDS011;2933;52.302;8.134;2023-10-31T22:59:31;17.73;;;10.13;;
5813;SDS011;2933;52.302;8.134;2023-10-31T23:27:35;18.40;;;10.80;;
5813;SDS011;2933;52.302;8.134;2023-10-31T23:32:40;16.77;;;10.20;;
5813;SDS011;2933;52.302;8.134;2023-10-31T23:43:53;19.10;;;11.07;;
5813;SDS011;2933;52.302;8.134;2023-10-31T23:49:47;21.17;;;11.07;;
5813;SDS011;2933;52.302;8.134;2023-10-31T23:54:52;22.63;;;10.50;;
